Cypress, Texas
Current Conditions -  °F | °C
As of 5:53 AM on Sunday 21 Dec 2014 (Local Time) from KDWH Reporting Station
Overcast Overcast  
Wind Chill: 49°   Ceiling: 2100
Heat Index: 49°   Visibility: 10mi
Dew Point: 45°   Wind: 3mph
Humidity: 86%   Direction: 60°ENE
Pressure: 30.12"   Gusts: NA
Location:  29.97°N, 95.7°W
Report Text: KDWH 211153Z 06003KT 10SM OVC021 09/07 A3012 RMK AO2 SLP199 T00940072 10111 20094 56015
Loading
Personal Weather Stations






























Interactive Weather Map New forecast layout! Learn more

10-Day Weather Forecast

Advertisements
Track Severe Weather on mobile